Norfolk, NE

3:18 PM CDT on July 10, 2014 (GMT -0500)
West Central - Norfolk (KNENORFO2) Elev 1640 ft | 42.04 °N, 97.45 °W | Change Station

Current weather conditions updated 3 minutes ago

Partly Cloudy
Partly Cloudy
75.8 °F
Feels Like 78 °F
N
1.0
Wind Variable Wind from North
Gusts 10.0 mph

Today is forecast to be Warmer than yesterday. Morning thunderstorms.

Today
High -- | Low -- °F
--% Chance of Precip.
Yesterday
High -- | Low -- °F
Precip. -- in
6:03 AM 9:06 PM
Waxing Gibbous, 96% visible
Pressure 29.91 in
Visibility 10.0 miles
Clouds Few 3300 ft
Heat Index 78 °F
Dew Point 58 °F
Humidity 53%
Rainfall 0.00 in
Snow Depth Not available.
UV 10 out of 12
Pollen 4.00 out of 12
Air Quality Not available.
Flu Activity Sporadic
METAR KOFK 101956Z AUTO 16014G22KT 10SM FEW033 28/19 A2994 RMK AO2 PK WND 17026/1902 SLP127 T02830194

More Conditions Fewer Conditions

Pressure 29.91 in
Visibility 10.0 miles
Clouds Few 3300 ft
Heat Index 78 °F
Dew Point 58 °F
Humidity 53%
Rainfall 0.00 in
Snow Depth Not available.
UV 10 out of 12
Pollen 4.00 out of 12
Air Quality Not available.
Flu Activity Sporadic
METAR KOFK 101956Z AUTO 16014G22KT 10SM FEW033 28/19 A2994 RMK AO2 PK WND 17026/1902 SLP127 T02830194

More Conditions Fewer Conditions

10-Day Weather Forecast

Almanac

Astronomy

Jul. 10, 2014 Rise Set
Actual Time 6:03 AM CDT 9:06 PM CDT
Civil Twilight 5:29 AM CDT 9:40 PM CDT
Nautical Twilight 4:46 AM CDT 10:23 PM CDT
Astronomical Twilight 3:55 AM CDT 11:13 PM CDT
Moon 7:19 PM CDT 4:17 AM CDT
Length of Visible Light 16h 10m
Length of Day
15h 03m
Tomorrow will be 1m 14s shorter.
Waxing Gibbous, 96% of the Moon is Illuminated
Today
Waxing Gibbous
Jul 12
Full
Jul 18
Last Quarter
Jul 26
New
Aug 3
First Quarter

Today's Extremes

State Highs State Lows

Community

WunderPhotos

Upload Photos

1,732,252 photos uploaded!

Nearby

Snow Depth

Station Depth Elevation
No new snow has been reported.

Earthquake Activity

City Distance Mag. Time & Date
No recent earthquake activity has been reported nearby.
Minimum magnitude displayed is 2.5.

Coastal Water Temperatures

Place Temperature
No Stations Reporting

Nearby Weather Stations

Station Location Temp. Heat Index Dew Point Humidity Wind Precip. Elev Updated Type
West Central - Norfolk, Norfolk, NE 75.8 °F 78 °F 58 °F 53% North  at  1.0 mph 0.00 in / hr 1640 ft 3:15 PM CDT Normal
Woodland Park, Norfolk, NE 82.6 °F 86 °F 68 °F 61% SSW  at  5.4 mph 0.00 in / hr 1700 ft 3:18 PM CDT Rapid Fire
Hogendorn Hill, Pierce, NE 87.6 °F 94 °F 72 °F 59% SW  at  15.9 mph 0.00 in / hr 1680 ft 3:15 PM CDT Normal
1 mile South of Wayne, Wayne, NE 85.1 °F 87 °F 66 °F 53% SSE  at  17.4 mph 0.00 in / hr 1463 ft 3:15 PM CDT Rapid Fire

Show More Stations Show Fewer Stations